Terminal Aerodrome Forecast
Issued by NWS

Home | Current Version | Previous Version | Text Only | Print | Product List | Glossary On
Versions: 1 2 3 4 5 6 7 8 9 10 11 12 13 14 15
000
FTUS46 KHNX 292337
TAFBFL
TAF
KBFL 292337Z 3000/3024 36005KT 4SM HZ FEW020 OVC150
     FM300600 VRB03KT 2SM BR BKN007 BKN150
     FM301500 09004KT 1 1/2SM BR BKN007
     FM301800 24003KT 2SM BR BKN250
     FM302100 31004KT 4SM HZ BKN250=

USA.gov is the U.S. government's official web portal to all federal, state and local government web resources and services.